createdAt,value
2023-02-11T00:02:08.832Z,54.90
2023-02-11T00:04:38.427Z,50.43
2023-02-11T00:07:08.073Z,51.35
2023-02-11T00:09:39.222Z,53.38
2023-02-11T00:12:08.777Z,57.48
2023-02-11T00:14:38.222Z,48.35
2023-02-11T00:17:07.764Z,48.50
2023-02-11T00:19:38.686Z,45.57
2023-02-11T00:22:08.204Z,44.40
2023-02-11T00:24:38.310Z,68.47
2023-02-11T00:27:07.734Z,54.63
2023-02-11T00:29:39.941Z,41.70
2023-02-11T00:32:09.431Z,46.75
2023-02-11T00:34:40.832Z,46.13
2023-02-11T00:37:11.966Z,42.50
2023-02-11T00:39:43.210Z,45.33
2023-02-11T00:42:15.732Z,45.43
2023-02-11T00:44:47.231Z,39.18
2023-02-11T00:47:18.432Z,40.90
2023-02-11T00:49:48.513Z,38.10
2023-02-11T00:52:17.943Z,39.67
2023-02-11T00:54:47.447Z,42.62
2023-02-11T00:57:17.121Z,39.25
2023-02-11T00:59:46.561Z,40.85
2023-02-11T01:02:15.981Z,37.48
2023-02-11T01:04:45.548Z,43.35
2023-02-11T01:07:15.044Z,40.90
2023-02-11T01:09:44.744Z,38.35
2023-02-11T01:12:14.389Z,40.17
2023-02-11T01:14:44.382Z,42.00
2023-02-11T01:17:14.073Z,41.08
2023-02-11T01:19:43.977Z,40.27
2023-02-11T01:22:13.839Z,43.83
2023-02-11T01:24:43.253Z,40.25
2023-02-11T01:42:08.104Z,40.85
2023-02-11T01:44:40.856Z,37.67
2023-02-11T01:47:12.785Z,38.42
2023-02-11T01:49:45.268Z,41.53
2023-02-11T01:52:19.633Z,43.13
2023-02-11T01:55:19.303Z,39.00
2023-02-11T01:57:52.571Z,39.80
2023-02-11T02:00:25.071Z,38.33
2023-02-11T02:03:12.980Z,47.13
2023-02-11T02:06:00.578Z,43.90
2023-02-11T02:08:45.408Z,40.40
2023-02-11T02:11:14.960Z,44.00
2023-02-11T02:13:46.390Z,47.57
2023-02-11T02:16:19.141Z,40.73
2023-02-11T02:18:54.804Z,43.20
2023-02-11T02:21:33.066Z,40.35
2023-02-11T02:24:28.050Z,41.05
2023-02-11T02:27:19.984Z,40.23
2023-02-11T02:29:55.537Z,35.63
2023-02-11T02:32:52.204Z,35.03
2023-02-11T02:35:45.765Z,33.15
2023-02-11T02:38:30.248Z,34.13
2023-02-11T02:41:14.322Z,38.73
2023-02-11T02:43:46.945Z,41.13
2023-02-11T02:46:19.542Z,35.23
2023-02-11T02:48:52.775Z,39.60
2023-02-11T02:51:41.916Z,35.00
2023-02-11T02:54:26.430Z,37.45
2023-02-11T02:57:18.695Z,41.15
2023-02-11T03:00:18.841Z,33.60
2023-02-11T03:03:13.218Z,37.78
2023-02-11T03:05:51.765Z,40.43
2023-02-11T03:08:47.854Z,36.50
2023-02-11T03:11:21.888Z,44.88
2023-02-11T03:13:53.992Z,35.13
2023-02-11T03:16:26.572Z,37.03
2023-02-11T03:19:05.617Z,37.78
2023-02-11T03:21:38.011Z,35.68
2023-02-11T03:25:57.665Z,37.90
2023-02-11T03:28:45.035Z,37.03
2023-02-11T03:31:29.931Z,37.90
2023-02-11T03:34:05.137Z,33.40
2023-02-11T03:36:55.278Z,29.42
2023-02-11T03:39:30.678Z,32.85
2023-02-11T03:42:03.064Z,31.87
2023-02-11T03:47:05.901Z,29.10
2023-02-11T03:49:38.404Z,29.97
2023-02-11T03:52:11.612Z,34.33
2023-02-11T03:54:44.136Z,33.78
2023-02-11T03:57:13.757Z,33.78
2023-02-11T03:59:57.970Z,32.73
2023-02-11T04:02:32.422Z,34.13
2023-02-11T04:07:31.313Z,34.88
2023-02-11T04:10:02.268Z,31.65
2023-02-11T04:12:31.822Z,38.48
2023-02-11T04:15:01.348Z,30.77
2023-02-11T04:17:30.953Z,31.90
2023-02-11T04:20:00.454Z,32.93
2023-02-11T04:22:31.458Z,33.92
2023-02-11T04:25:00.950Z,29.45
2023-02-11T04:27:30.553Z,32.05
2023-02-11T04:30:00.442Z,27.65
2023-02-11T04:32:29.868Z,28.45
2023-02-11T04:35:03.983Z,29.18
2023-02-11T04:37:33.534Z,30.08
2023-02-11T04:40:04.588Z,27.10
2023-02-11T04:42:33.973Z,24.37
2023-02-11T04:45:03.562Z,25.27
2023-02-11T04:47:33.036Z,30.60
2023-02-11T04:50:02.541Z,32.93
2023-02-11T04:52:31.965Z,30.90
2023-02-11T04:55:01.578Z,24.07
2023-02-11T04:57:31.007Z,24.80
2023-02-11T05:00:00.438Z,24.52
2023-02-11T05:02:29.958Z,29.45
2023-02-11T05:04:59.450Z,30.00
2023-02-11T05:07:29.578Z,28.20
2023-02-11T05:09:59.210Z,25.43
2023-02-11T05:12:28.644Z,31.07
2023-02-11T05:14:58.069Z,28.00
2023-02-11T05:17:27.745Z,24.70
2023-02-11T05:19:57.235Z,29.00
2023-02-11T05:22:26.652Z,29.45
2023-02-11T05:24:56.174Z,27.95
2023-02-11T05:27:25.590Z,27.10
2023-02-11T05:29:55.029Z,28.05
2023-02-11T05:32:24.614Z,30.62
2023-02-11T05:34:54.032Z,22.40
2023-02-11T05:37:23.504Z,24.77
2023-02-11T05:39:53.112Z,23.73
2023-02-11T05:42:22.602Z,28.42
2023-02-11T05:44:52.042Z,27.77
2023-02-11T05:47:22.232Z,28.23
2023-02-11T05:49:53.566Z,27.95
2023-02-11T05:52:25.689Z,26.40
2023-02-11T05:54:56.823Z,27.13
2023-02-11T05:57:26.743Z,27.57
2023-02-11T05:59:56.172Z,26.52
2023-02-11T06:02:25.651Z,27.73
2023-02-11T06:04:55.573Z,27.02
2023-02-11T06:07:25.099Z,27.95
2023-02-11T06:09:54.585Z,24.85
2023-02-11T06:12:24.234Z,27.85
2023-02-11T06:14:53.722Z,25.23
2023-02-11T06:17:23.527Z,32.17
2023-02-11T06:19:53.159Z,24.67
2023-02-11T06:22:22.588Z,28.98
2023-02-11T06:25:01.404Z,28.85
2023-02-11T06:27:23.973Z,28.17
2023-02-11T06:29:54.712Z,30.37
2023-02-11T06:32:42.682Z,28.55
2023-02-11T06:34:55.470Z,26.17
2023-02-11T06:37:25.788Z,26.25
2023-02-11T06:39:55.877Z,32.08
2023-02-11T06:42:25.452Z,31.80
2023-02-11T06:44:54.940Z,32.50
2023-02-11T06:47:24.380Z,29.30
2023-02-11T06:49:54.724Z,27.42
2023-02-11T06:52:24.228Z,33.73
2023-02-11T06:54:53.739Z,29.42
2023-02-11T06:57:24.143Z,29.55
2023-02-11T06:59:53.588Z,30.52
2023-02-11T07:02:24.115Z,30.23
2023-02-11T07:04:53.549Z,27.80
2023-02-11T07:07:23.154Z,30.52
2023-02-11T07:09:52.786Z,34.05
2023-02-11T07:12:22.356Z,33.23
2023-02-11T07:14:53.249Z,37.03
2023-02-11T07:17:22.682Z,32.35
2023-02-11T07:19:52.186Z,38.17
2023-02-11T07:22:21.822Z,39.20
2023-02-11T07:24:52.996Z,39.65
2023-02-11T07:27:22.459Z,35.95
2023-02-11T07:29:52.748Z,34.13
2023-02-11T07:32:22.225Z,36.58
2023-02-11T07:34:51.727Z,35.35
2023-02-11T07:37:21.364Z,37.45
2023-02-11T07:39:51.012Z,38.23
2023-02-11T07:42:20.513Z,37.00
2023-02-11T07:44:50.649Z,39.98
2023-02-11T07:47:21.466Z,36.08
2023-02-11T07:49:50.898Z,37.95
2023-02-11T07:52:21.463Z,37.42
2023-02-11T07:54:50.965Z,34.40
2023-02-11T07:57:20.380Z,33.48
2023-02-11T07:59:51.503Z,27.42
2023-02-11T08:02:21.960Z,31.12
2023-02-11T08:04:51.361Z,30.90
2023-02-11T08:07:22.497Z,28.35
2023-02-11T08:09:51.936Z,32.15
2023-02-11T08:12:21.361Z,37.78
2023-02-11T08:14:51.472Z,32.83
2023-02-11T08:17:20.884Z,31.60
2023-02-11T08:19:52.883Z,29.18
2023-02-11T08:22:22.374Z,28.55
2023-02-11T08:24:52.532Z,25.72
2023-02-11T08:27:23.739Z,28.07
2023-02-11T08:29:53.982Z,29.10
2023-02-11T08:32:25.724Z,24.35
2023-02-11T08:34:55.719Z,23.25
2023-02-11T08:37:25.152Z,29.07
2023-02-11T08:39:54.624Z,25.20
2023-02-11T08:42:24.049Z,28.62
2023-02-11T08:44:53.601Z,29.52
2023-02-11T08:47:23.020Z,28.30
2023-02-11T08:49:53.938Z,24.00
2023-02-11T08:52:24.034Z,26.93
2023-02-11T08:54:53.546Z,28.38
2023-02-11T08:57:23.248Z,25.17
2023-02-11T08:59:52.679Z,31.05
2023-02-11T09:02:22.188Z,31.63
2023-02-11T09:04:51.941Z,26.05
2023-02-11T09:07:21.370Z,25.43
2023-02-11T09:09:50.797Z,27.85
2023-02-11T09:12:20.382Z,25.82
2023-02-11T09:14:49.810Z,26.23
2023-02-11T09:17:19.238Z,23.50
2023-02-11T09:19:48.798Z,23.47
2023-02-11T09:22:18.244Z,24.02
2023-02-11T09:24:47.686Z,23.83
2023-02-11T09:27:17.693Z,21.65
2023-02-11T09:29:47.207Z,26.25
2023-02-11T09:32:17.141Z,29.05
2023-02-11T09:34:49.092Z,24.67
2023-02-11T09:37:18.505Z,21.97
2023-02-11T09:39:48.047Z,21.77
2023-02-11T09:42:37.119Z,23.15
2023-02-11T09:45:09.840Z,24.32
2023-02-11T09:47:42.402Z,24.00
2023-02-11T09:50:18.515Z,20.88
2023-02-11T09:53:03.073Z,24.52
2023-02-11T09:55:40.297Z,21.10
2023-02-11T09:58:19.117Z,20.02
2023-02-11T10:00:54.793Z,22.30
2023-02-11T10:04:02.751Z,21.33
2023-02-11T10:06:54.256Z,25.02
2023-02-11T10:09:35.515Z,22.55
2023-02-11T10:12:26.200Z,20.20
2023-02-11T10:15:21.202Z,27.02
2023-02-11T10:17:59.628Z,21.77
2023-02-11T10:20:40.921Z,25.30
2023-02-11T10:23:20.940Z,23.42
2023-02-11T10:25:56.258Z,22.45
2023-02-11T10:28:31.328Z,19.77
2023-02-11T10:31:09.547Z,19.80
2023-02-11T10:33:55.017Z,18.25
2023-02-11T10:36:27.519Z,18.07
2023-02-11T10:38:58.173Z,21.35
2023-02-11T10:41:30.753Z,14.98
2023-02-11T10:44:03.229Z,19.12
2023-02-11T10:49:04.079Z,21.57
2023-02-11T10:51:34.916Z,17.15
2023-02-11T10:54:18.174Z,16.97
2023-02-11T10:56:51.975Z,16.07
2023-02-11T10:59:40.735Z,16.13
2023-02-11T11:10:10.133Z,22.15
2023-02-11T11:12:48.322Z,20.55
2023-02-11T11:15:27.032Z,24.40
2023-02-11T11:18:21.359Z,19.70
2023-02-11T11:20:45.480Z,21.05
2023-02-11T11:23:25.186Z,19.10
2023-02-11T11:26:09.519Z,22.73
2023-02-11T11:28:42.013Z,20.62
2023-02-11T11:31:20.572Z,23.25
2023-02-11T11:33:54.349Z,21.95
2023-02-11T11:36:27.001Z,21.37
2023-02-11T11:38:59.514Z,20.08
2023-02-11T11:41:32.801Z,28.77
2023-02-11T11:44:17.112Z,18.62
2023-02-11T11:46:50.593Z,21.70
2023-02-11T11:49:32.250Z,22.45
2023-02-11T11:52:16.534Z,22.17
2023-02-11T11:54:49.041Z,25.35
2023-02-11T11:57:22.425Z,22.20
2023-02-11T11:59:52.223Z,17.70
2023-02-11T12:02:56.601Z,27.37
2023-02-11T12:05:29.052Z,23.83
2023-02-11T12:08:07.129Z,23.83
2023-02-11T12:10:57.804Z,21.77
2023-02-11T12:13:30.728Z,25.00
2023-02-11T12:16:28.804Z,20.40
2023-02-11T12:19:16.473Z,21.52
2023-02-11T12:22:07.041Z,18.98
2023-02-11T12:24:45.624Z,25.52
2023-02-11T12:27:20.707Z,21.10
2023-02-11T12:30:03.127Z,23.50
2023-02-11T12:32:54.041Z,21.13
2023-02-11T12:35:41.971Z,20.37
2023-02-11T12:38:18.791Z,18.25
2023-02-11T12:41:01.345Z,20.95
2023-02-11T12:43:50.570Z,20.25
2023-02-11T12:46:23.271Z,16.70
2023-02-11T12:49:27.514Z,15.83
2023-02-11T12:52:17.967Z,14.70
2023-02-11T12:54:56.438Z,16.07
2023-02-11T12:57:30.265Z,16.23
2023-02-11T13:00:24.833Z,15.25
2023-02-11T13:03:14.297Z,15.05
2023-02-11T13:05:56.015Z,15.00
2023-02-11T13:08:28.737Z,15.65
2023-02-11T13:11:03.939Z,14.93
2023-02-11T13:13:36.541Z,13.45
2023-02-11T13:18:41.785Z,15.13
2023-02-11T13:21:28.813Z,12.80
2023-02-11T13:24:10.251Z,14.73
2023-02-11T13:26:45.684Z,16.17
2023-02-11T13:29:37.896Z,15.05
2023-02-11T13:32:10.557Z,18.00
2023-02-11T13:34:46.953Z,15.50
2023-02-11T13:37:32.271Z,16.55
2023-02-11T13:40:08.837Z,15.85
2023-02-11T13:42:47.094Z,16.85
2023-02-11T13:45:46.869Z,14.43
2023-02-11T13:48:25.627Z,14.15
2023-02-11T13:50:58.596Z,16.25
2023-02-11T13:53:30.164Z,14.07
2023-02-11T13:56:08.946Z,16.10
2023-02-11T13:58:47.034Z,18.12
2023-02-11T14:01:42.108Z,13.93
2023-02-11T14:04:39.348Z,14.43
2023-02-11T14:07:50.990Z,15.80
2023-02-11T14:10:46.180Z,19.17
2023-02-11T14:13:36.454Z,16.42
2023-02-11T14:16:13.476Z,20.68
2023-02-11T14:18:53.251Z,20.43
2023-02-11T14:21:30.306Z,28.60
2023-02-11T14:24:07.684Z,16.77
2023-02-11T14:27:01.570Z,16.82
2023-02-11T14:29:54.759Z,18.75
2023-02-11T14:32:48.372Z,18.70
2023-02-11T14:35:27.364Z,18.00
2023-02-11T14:38:05.661Z,15.55
2023-02-11T14:40:38.616Z,17.77
2023-02-11T14:43:29.343Z,22.17
2023-02-11T14:46:00.609Z,16.93
2023-02-11T14:51:12.374Z,17.52
2023-02-11T14:53:47.875Z,22.50
2023-02-11T14:56:28.205Z,19.62
2023-02-11T14:58:58.408Z,17.40
2023-02-11T15:01:36.779Z,16.52
2023-02-11T15:04:09.358Z,22.32
2023-02-11T15:06:42.523Z,17.02
2023-02-11T15:09:25.438Z,16.50
2023-02-11T15:11:57.550Z,15.68
2023-02-11T15:14:32.791Z,15.10
2023-02-11T15:17:06.493Z,18.42
2023-02-11T15:19:38.993Z,16.25
2023-02-11T15:22:29.771Z,13.80
2023-02-11T15:25:05.433Z,14.55
2023-02-11T15:27:50.395Z,18.37
2023-02-11T15:30:28.712Z,14.00
2023-02-11T15:33:03.576Z,17.42
2023-02-11T15:35:41.558Z,15.23
2023-02-11T15:38:14.584Z,19.45
2023-02-11T15:41:00.755Z,13.07
2023-02-11T15:43:44.400Z,11.57
2023-02-11T15:46:17.661Z,15.90
2023-02-11T15:48:55.718Z,19.82
2023-02-11T15:51:35.762Z,14.63
2023-02-11T15:54:08.527Z,14.90
2023-02-11T15:56:45.054Z,16.53
2023-02-11T15:59:24.972Z,30.90
2023-02-11T16:01:57.444Z,19.40
2023-02-11T16:04:29.365Z,12.10
2023-02-11T16:06:59.293Z,16.20
2023-02-11T16:09:37.815Z,15.95
2023-02-11T16:12:30.277Z,21.25
2023-02-11T16:15:01.414Z,15.77
2023-02-11T16:17:30.993Z,18.15
2023-02-11T16:20:00.630Z,18.70
2023-02-11T16:22:33.614Z,16.35
2023-02-11T16:25:04.188Z,22.55
2023-02-11T16:27:44.149Z,17.75
2023-02-11T16:30:31.974Z,21.35
2023-02-11T16:33:04.255Z,20.23
2023-02-11T16:35:33.939Z,24.55
2023-02-11T16:38:03.355Z,25.55
2023-02-11T16:40:33.670Z,25.40
2023-02-11T16:43:03.074Z,21.33
2023-02-11T16:45:32.641Z,19.40
2023-02-11T16:48:03.063Z,17.48
2023-02-11T16:50:32.966Z,21.47
2023-02-11T16:53:05.530Z,21.10
2023-02-11T16:55:36.498Z,15.70
2023-02-11T16:58:07.602Z,18.92
2023-02-11T17:00:38.059Z,22.07
2023-02-11T17:03:09.756Z,17.52
2023-02-11T17:05:58.106Z,17.33
2023-02-11T17:08:12.822Z,17.75
2023-02-11T17:10:42.683Z,16.27
2023-02-11T17:13:12.129Z,26.15
2023-02-11T17:15:41.667Z,21.55
2023-02-11T17:18:15.385Z,15.43
2023-02-11T17:20:45.258Z,19.05
2023-02-11T17:23:14.763Z,17.25
2023-02-11T17:25:44.177Z,18.65
2023-02-11T17:28:13.719Z,18.42
2023-02-11T17:30:44.880Z,17.95
2023-02-11T17:33:14.277Z,15.28
2023-02-11T17:35:44.366Z,20.45
2023-02-11T17:38:15.110Z,19.17
2023-02-11T17:40:46.423Z,18.93
2023-02-11T17:43:17.955Z,22.42
2023-02-11T17:45:47.441Z,19.82
2023-02-11T17:48:16.902Z,21.42
2023-02-11T17:50:46.395Z,25.30
2023-02-11T17:53:15.890Z,26.85
2023-02-11T17:55:45.392Z,19.32
2023-02-11T17:58:14.911Z,24.87
2023-02-11T18:00:44.466Z,20.20
2023-02-11T18:03:13.951Z,20.75
2023-02-11T18:05:44.299Z,21.80
2023-02-11T18:08:13.732Z,21.05
2023-02-11T18:10:43.371Z,19.48
2023-02-11T18:13:13.791Z,20.02
2023-02-11T18:15:45.189Z,18.20
2023-02-11T18:18:15.263Z,16.32
2023-02-11T18:20:46.333Z,16.93
2023-02-11T18:23:16.075Z,20.12
2023-02-11T18:25:45.511Z,18.37
2023-02-11T18:28:15.039Z,21.15
2023-02-11T18:30:44.923Z,17.67
2023-02-11T18:33:14.958Z,21.33
2023-02-11T18:35:46.000Z,16.90
2023-02-11T18:38:15.676Z,19.35
2023-02-11T18:40:47.315Z,18.37
2023-02-11T18:43:20.915Z,22.05
2023-02-11T18:45:51.958Z,21.77
2023-02-11T18:48:21.547Z,26.35
2023-02-11T18:50:51.163Z,30.90
2023-02-11T18:53:21.082Z,33.83
2023-02-11T18:55:50.952Z,30.68
2023-02-11T18:58:21.420Z,27.60
2023-02-11T19:00:51.520Z,35.50
2023-02-11T19:03:21.641Z,35.00
2023-02-11T19:05:51.631Z,34.75
2023-02-11T19:08:21.378Z,32.03
2023-02-11T19:10:52.423Z,22.30
2023-02-11T19:13:21.844Z,23.77
2023-02-11T19:15:51.544Z,24.32
2023-02-11T19:18:23.642Z,24.98
2023-02-11T19:20:53.060Z,21.30
2023-02-11T19:23:22.494Z,26.62
2023-02-11T19:25:53.030Z,25.82
2023-02-11T19:28:22.608Z,24.15
2023-02-11T19:30:52.265Z,23.52
2023-02-11T19:33:21.989Z,25.52
2023-02-11T19:35:51.672Z,28.57
2023-02-11T19:38:22.055Z,22.30
2023-02-11T19:40:58.849Z,33.18
2023-02-11T19:43:29.323Z,33.98
2023-02-11T19:45:58.823Z,26.95
2023-02-11T19:48:29.417Z,26.07
2023-02-11T19:50:59.105Z,33.08
2023-02-11T19:53:28.615Z,21.48
2023-02-11T19:56:01.572Z,27.75
2023-02-11T20:01:08.630Z,27.42
2023-02-11T20:03:40.788Z,29.23
2023-02-11T20:06:15.145Z,24.53
2023-02-11T20:08:45.419Z,33.90
2023-02-11T20:11:17.762Z,27.77
2023-02-11T20:16:18.058Z,26.25
2023-02-11T20:18:49.654Z,34.80
2023-02-11T20:21:25.275Z,28.73
2023-02-11T20:23:56.010Z,27.85
2023-02-11T20:26:27.632Z,28.02
2023-02-11T20:28:59.125Z,37.37
2023-02-11T20:31:29.361Z,31.95
2023-02-11T20:34:00.390Z,26.62
2023-02-11T20:36:32.365Z,29.45
2023-02-11T20:39:03.687Z,37.73
2023-02-11T20:41:35.652Z,31.05
2023-02-11T20:44:08.141Z,29.45
2023-02-11T20:46:40.564Z,30.35
2023-02-11T20:49:12.576Z,39.92
2023-02-11T20:51:42.641Z,41.53
2023-02-11T20:54:17.878Z,39.13
2023-02-11T20:56:48.720Z,41.18
2023-02-11T20:59:19.344Z,45.15
2023-02-11T21:01:53.382Z,43.13
2023-02-11T21:04:28.926Z,41.15
2023-02-11T21:07:01.980Z,40.08
2023-02-11T21:09:33.503Z,35.60
2023-02-11T21:12:03.563Z,42.33
2023-02-11T21:14:34.165Z,37.80
2023-02-11T21:17:04.145Z,37.25
2023-02-11T21:19:33.684Z,36.83
2023-02-11T21:22:03.168Z,36.75
2023-02-11T21:24:32.593Z,37.98
2023-02-11T21:27:03.540Z,39.57
2023-02-11T21:29:36.665Z,38.25
2023-02-11T21:32:04.510Z,36.15
2023-02-11T21:34:34.154Z,36.17
2023-02-11T21:37:04.503Z,35.35
2023-02-11T21:39:33.990Z,36.23
2023-02-11T21:42:03.439Z,36.33
2023-02-11T21:44:33.200Z,32.50
2023-02-11T21:47:02.764Z,37.55
2023-02-11T21:49:32.594Z,32.93
2023-02-11T21:52:02.478Z,34.15
2023-02-11T21:54:32.397Z,34.85
2023-02-11T21:57:03.411Z,33.95
2023-02-11T21:59:32.920Z,35.10
2023-02-11T22:02:02.342Z,34.55
2023-02-11T22:04:31.915Z,32.33
2023-02-11T22:07:02.986Z,39.55
2023-02-11T22:09:32.619Z,36.58
2023-02-11T22:12:02.054Z,37.20
2023-02-11T22:14:32.474Z,32.83
2023-02-11T22:17:02.652Z,36.17
2023-02-11T22:19:35.384Z,32.33
2023-02-11T22:22:05.237Z,31.33
2023-02-11T22:24:35.903Z,32.45
2023-02-11T22:27:05.485Z,32.07
2023-02-11T22:29:34.977Z,34.63
2023-02-11T22:32:04.517Z,32.48
2023-02-11T22:34:34.565Z,31.42
2023-02-11T22:37:05.213Z,30.17
2023-02-11T22:39:34.675Z,36.85
2023-02-11T22:42:04.191Z,30.43
2023-02-11T22:44:33.613Z,37.03
2023-02-11T22:47:03.102Z,36.10
2023-02-11T22:49:33.244Z,34.90
2023-02-11T22:52:03.030Z,34.40
2023-02-11T22:54:32.740Z,34.78
2023-02-11T22:57:02.171Z,33.10
2023-02-11T22:59:31.670Z,36.65
2023-02-11T23:02:01.458Z,33.95
2023-02-11T23:04:30.904Z,37.17
2023-02-11T23:07:00.335Z,36.98
2023-02-11T23:09:30.046Z,34.70
2023-02-11T23:12:00.100Z,33.82
2023-02-11T23:14:29.514Z,35.73
2023-02-11T23:16:59.159Z,33.55
2023-02-11T23:19:28.832Z,31.77
2023-02-11T23:21:58.245Z,35.55
2023-02-11T23:24:27.851Z,34.20
2023-02-11T23:26:57.406Z,38.83
2023-02-11T23:29:26.824Z,34.85
2023-02-11T23:31:58.720Z,38.63
2023-02-11T23:34:27.483Z,32.58
2023-02-11T23:36:58.625Z,40.33
2023-02-11T23:39:28.207Z,35.78
2023-02-11T23:41:59.789Z,37.73
2023-02-11T23:44:29.471Z,34.18
2023-02-11T23:46:59.174Z,38.33
2023-02-11T23:49:28.652Z,36.58
2023-02-11T23:51:58.137Z,34.65
2023-02-11T23:54:27.947Z,35.60
2023-02-11T23:56:58.394Z,36.38
2023-02-11T23:59:27.873Z,41.35
